sensor_id;sensor_type;location;lat;lon;timestamp;pressure;altitude;pressure_sealevel;temperature;humidity
30708;BME280;17458;48.958;8.284;2023-09-18T00:01:57;99573.00;;;23.17;74.14
30708;BME280;17458;48.958;8.284;2023-09-18T00:04:41;99578.56;;;23.05;74.25
30708;BME280;17458;48.958;8.284;2023-09-18T00:07:25;99585.91;;;22.98;74.44
30708;BME280;17458;48.958;8.284;2023-09-18T00:10:10;99572.16;;;23.15;73.85
30708;BME280;17458;48.958;8.284;2023-09-18T00:12:54;99569.69;;;22.95;74.06
30708;BME280;17458;48.958;8.284;2023-09-18T00:15:38;99558.66;;;23.10;74.02
30708;BME280;17458;48.958;8.284;2023-09-18T00:18:24;99563.22;;;23.05;74.26
30708;BME280;17458;48.958;8.284;2023-09-18T00:21:08;99564.25;;;22.95;74.08
30708;BME280;17458;48.958;8.284;2023-09-18T00:23:54;99571.47;;;22.97;74.79
30708;BME280;17458;48.958;8.284;2023-09-18T00:26:38;99569.47;;;23.12;73.89
30708;BME280;17458;48.958;8.284;2023-09-18T00:29:22;99574.38;;;22.81;74.09
30708;BME280;17458;48.958;8.284;2023-09-18T00:32:07;99564.06;;;23.10;73.27
30708;BME280;17458;48.958;8.284;2023-09-18T00:34:52;99561.56;;;22.93;72.92
30708;BME280;17458;48.958;8.284;2023-09-18T00:37:36;99560.03;;;22.71;73.49
30708;BME280;17458;48.958;8.284;2023-09-18T00:40:20;99565.13;;;23.00;72.86
30708;BME280;17458;48.958;8.284;2023-09-18T00:43:04;99568.63;;;22.24;75.04
30708;BME280;17458;48.958;8.284;2023-09-18T00:45:48;99562.94;;;22.50;74.47
30708;BME280;17458;48.958;8.284;2023-09-18T00:48:33;99561.00;;;22.64;73.66
30708;BME280;17458;48.958;8.284;2023-09-18T00:51:17;99567.34;;;22.60;73.26
30708;BME280;17458;48.958;8.284;2023-09-18T00:54:01;99556.38;;;22.74;72.38
30708;BME280;17458;48.958;8.284;2023-09-18T00:56:46;99575.38;;;22.68;72.94
30708;BME280;17458;48.958;8.284;2023-09-18T00:59:31;99568.03;;;22.82;72.09
30708;BME280;17458;48.958;8.284;2023-09-18T01:02:17;99576.19;;;22.80;72.54
30708;BME280;17458;48.958;8.284;2023-09-18T01:05:04;99591.28;;;23.00;72.29
30708;BME280;17458;48.958;8.284;2023-09-18T01:07:50;99581.47;;;22.89;72.26
30708;BME280;17458;48.958;8.284;2023-09-18T01:10:50;99586.72;;;23.03;72.11
30708;BME280;17458;48.958;8.284;2023-09-18T01:13:39;99593.91;;;23.07;71.36
30708;BME280;17458;48.958;8.284;2023-09-18T01:16:44;99601.06;;;23.11;71.22
30708;BME280;17458;48.958;8.284;2023-09-18T01:19:38;99611.25;;;22.91;71.88
30708;BME280;17458;48.958;8.284;2023-09-18T01:22:23;99628.56;;;22.73;72.16
30708;BME280;17458;48.958;8.284;2023-09-18T01:25:07;99637.44;;;22.89;72.10
30708;BME280;17458;48.958;8.284;2023-09-18T01:27:51;99629.25;;;22.95;72.00
30708;BME280;17458;48.958;8.284;2023-09-18T01:30:36;99608.34;;;23.08;71.04
30708;BME280;17458;48.958;8.284;2023-09-18T01:33:22;99599.22;;;23.15;70.66
30708;BME280;17458;48.958;8.284;2023-09-18T01:36:08;99596.44;;;23.19;70.56
30708;BME280;17458;48.958;8.284;2023-09-18T01:38:53;99589.16;;;23.24;70.70
30708;BME280;17458;48.958;8.284;2023-09-18T01:41:38;99598.94;;;23.34;70.22
30708;BME280;17458;48.958;8.284;2023-09-18T01:44:23;99606.03;;;23.45;69.73
30708;BME280;17458;48.958;8.284;2023-09-18T01:47:09;99617.16;;;23.25;70.44
30708;BME280;17458;48.958;8.284;2023-09-18T01:49:54;99666.03;;;23.16;71.04
30708;BME280;17458;48.958;8.284;2023-09-18T01:52:38;99687.59;;;23.23;70.99
30708;BME280;17458;48.958;8.284;2023-09-18T01:55:22;99682.97;;;23.33;70.99
30708;BME280;17458;48.958;8.284;2023-09-18T01:58:06;99647.28;;;22.97;73.09
30708;BME280;17458;48.958;8.284;2023-09-18T02:00:50;99676.47;;;22.65;73.87
30708;BME280;17458;48.958;8.284;2023-09-18T02:03:34;99684.59;;;22.63;74.93
30708;BME280;17458;48.958;8.284;2023-09-18T02:06:18;99713.34;;;22.78;73.61
30708;BME280;17458;48.958;8.284;2023-09-18T02:09:02;99713.97;;;23.08;73.43
30708;BME280;17458;48.958;8.284;2023-09-18T02:11:52;99703.06;;;23.14;72.40
30708;BME280;17458;48.958;8.284;2023-09-18T02:14:36;99689.41;;;23.24;72.17
30708;BME280;17458;48.958;8.284;2023-09-18T02:17:22;99678.44;;;23.33;72.14
30708;BME280;17458;48.958;8.284;2023-09-18T02:20:06;99664.06;;;23.30;72.02
30708;BME280;17458;48.958;8.284;2023-09-18T02:22:55;99664.06;;;23.28;72.23
30708;BME280;17458;48.958;8.284;2023-09-18T02:25:39;99664.00;;;23.33;72.31
30708;BME280;17458;48.958;8.284;2023-09-18T02:28:24;99656.78;;;23.32;71.93
30708;BME280;17458;48.958;8.284;2023-09-18T02:31:08;99655.81;;;23.38;72.02
30708;BME280;17458;48.958;8.284;2023-09-18T02:33:52;99628.69;;;23.39;73.12
30708;BME280;17458;48.958;8.284;2023-09-18T02:36:36;99638.53;;;23.46;72.10
30708;BME280;17458;48.958;8.284;2023-09-18T02:39:22;99641.78;;;23.04;73.95
30708;BME280;17458;48.958;8.284;2023-09-18T02:42:08;99633.66;;;23.02;73.04
30708;BME280;17458;48.958;8.284;2023-09-18T02:44:52;99590.97;;;23.24;72.20
30708;BME280;17458;48.958;8.284;2023-09-18T02:47:36;99592.78;;;23.25;72.30
30708;BME280;17458;48.958;8.284;2023-09-18T02:50:24;99610.19;;;23.04;74.64
30708;BME280;17458;48.958;8.284;2023-09-18T02:53:18;99610.16;;;23.07;74.09
30708;BME280;17458;48.958;8.284;2023-09-18T02:56:03;99624.88;;;22.83;75.00
30708;BME280;17458;48.958;8.284;2023-09-18T02:58:47;99632.72;;;23.05;73.29
30708;BME280;17458;48.958;8.284;2023-09-18T03:01:31;99640.78;;;23.14;72.35
30708;BME280;17458;48.958;8.284;2023-09-18T03:04:15;99642.44;;;23.24;71.99
30708;BME280;17458;48.958;8.284;2023-09-18T03:06:59;99639.63;;;23.31;72.64
30708;BME280;17458;48.958;8.284;2023-09-18T03:09:43;99637.88;;;23.27;71.97
30708;BME280;17458;48.958;8.284;2023-09-18T03:12:28;99657.03;;;23.14;73.40
30708;BME280;17458;48.958;8.284;2023-09-18T03:15:12;99668.66;;;23.22;72.34
30708;BME280;17458;48.958;8.284;2023-09-18T03:17:57;99705.94;;;23.00;73.30
30708;BME280;17458;48.958;8.284;2023-09-18T03:20:42;99744.09;;;22.68;75.09
30708;BME280;17458;48.958;8.284;2023-09-18T03:23:26;99749.63;;;22.57;74.99
30708;BME280;17458;48.958;8.284;2023-09-18T03:26:11;99765.25;;;22.11;76.52
30708;BME280;17458;48.958;8.284;2023-09-18T03:28:55;99778.78;;;22.11;77.35
30708;BME280;17458;48.958;8.284;2023-09-18T03:31:39;99763.28;;;22.38;76.30
30708;BME280;17458;48.958;8.284;2023-09-18T03:34:23;99763.44;;;22.13;77.74
30708;BME280;17458;48.958;8.284;2023-09-18T03:37:09;99764.09;;;22.47;76.82
30708;BME280;17458;48.958;8.284;2023-09-18T03:39:54;99768.94;;;22.00;80.50
30708;BME280;17458;48.958;8.284;2023-09-18T03:42:39;99761.72;;;21.97;81.71
30708;BME280;17458;48.958;8.284;2023-09-18T03:45:23;99754.53;;;21.90;82.65
30708;BME280;17458;48.958;8.284;2023-09-18T03:48:07;99759.06;;;21.88;83.29
30708;BME280;17458;48.958;8.284;2023-09-18T03:50:52;99739.19;;;21.97;82.24
30708;BME280;17458;48.958;8.284;2023-09-18T03:53:36;99706.69;;;22.06;82.30
30708;BME280;17458;48.958;8.284;2023-09-18T03:56:20;99694.13;;;21.91;82.07
30708;BME280;17458;48.958;8.284;2023-09-18T03:59:05;99689.78;;;21.73;82.96
30708;BME280;17458;48.958;8.284;2023-09-18T04:01:49;99669.84;;;21.88;82.47
30708;BME280;17458;48.958;8.284;2023-09-18T04:04:33;99645.47;;;22.02;81.15
30708;BME280;17458;48.958;8.284;2023-09-18T04:07:17;99609.53;;;21.77;82.78
30708;BME280;17458;48.958;8.284;2023-09-18T04:10:03;99579.75;;;21.86;81.19
30708;BME280;17458;48.958;8.284;2023-09-18T04:12:47;99556.38;;;21.79;81.12
30708;BME280;17458;48.958;8.284;2023-09-18T04:15:31;99548.84;;;22.19;79.36
30708;BME280;17458;48.958;8.284;2023-09-18T04:18:15;99554.06;;;22.39;78.91
30708;BME280;17458;48.958;8.284;2023-09-18T04:20:59;99542.38;;;22.34;79.23
30708;BME280;17458;48.958;8.284;2023-09-18T04:23:44;99527.88;;;22.44;78.74
30708;BME280;17458;48.958;8.284;2023-09-18T04:26:28;99524.34;;;22.34;78.74
30708;BME280;17458;48.958;8.284;2023-09-18T04:29:17;99512.44;;;22.49;78.63
30708;BME280;17458;48.958;8.284;2023-09-18T04:34:47;99501.53;;;22.59;77.83
30708;BME280;17458;48.958;8.284;2023-09-18T04:37:35;99495.06;;;22.70;77.80
30708;BME280;17458;48.958;8.284;2023-09-18T04:40:20;99516.59;;;22.83;77.55
30708;BME280;17458;48.958;8.284;2023-09-18T04:43:03;99527.31;;;22.91;76.57
30708;BME280;17458;48.958;8.284;2023-09-18T04:45:48;99527.28;;;22.92;76.37
30708;BME280;17458;48.958;8.284;2023-09-18T04:48:33;99540.72;;;23.02;76.15
30708;BME280;17458;48.958;8.284;2023-09-18T04:51:18;99538.09;;;22.94;76.04
30708;BME280;17458;48.958;8.284;2023-09-18T04:54:03;99526.44;;;22.89;76.15
30708;BME280;17458;48.958;8.284;2023-09-18T04:56:48;99539.28;;;22.70;77.24
30708;BME280;17458;48.958;8.284;2023-09-18T04:59:32;99537.38;;;22.81;76.65
30708;BME280;17458;48.958;8.284;2023-09-18T05:02:16;99538.06;;;22.97;76.08
30708;BME280;17458;48.958;8.284;2023-09-18T05:05:00;99535.59;;;22.74;76.84
30708;BME280;17458;48.958;8.284;2023-09-18T05:07:45;99540.13;;;22.77;77.16
30708;BME280;17458;48.958;8.284;2023-09-18T05:10:29;99539.41;;;22.59;77.89
30708;BME280;17458;48.958;8.284;2023-09-18T05:13:14;99543.25;;;22.39;78.72
30708;BME280;17458;48.958;8.284;2023-09-18T05:15:58;99552.81;;;22.70;77.62
30708;BME280;17458;48.958;8.284;2023-09-18T05:18:43;99568.97;;;22.75;76.87
30708;BME280;17458;48.958;8.284;2023-09-18T05:21:27;99567.47;;;22.48;78.28
30708;BME280;17458;48.958;8.284;2023-09-18T05:24:11;99559.69;;;22.17;78.82
30708;BME280;17458;48.958;8.284;2023-09-18T05:26:56;99578.56;;;22.22;78.91
30708;BME280;17458;48.958;8.284;2023-09-18T05:29:40;99577.47;;;22.44;78.79
30708;BME280;17458;48.958;8.284;2023-09-18T05:32:24;99584.59;;;22.50;78.53
30708;BME280;17458;48.958;8.284;2023-09-18T05:35:08;99582.75;;;22.55;78.35
30708;BME280;17458;48.958;8.284;2023-09-18T05:37:54;99582.66;;;22.61;78.46
30708;BME280;17458;48.958;8.284;2023-09-18T05:40:40;99583.53;;;22.66;78.42
30708;BME280;17458;48.958;8.284;2023-09-18T05:43:25;99597.81;;;22.82;77.82
30708;BME280;17458;48.958;8.284;2023-09-18T05:46:09;99601.38;;;22.87;77.52
30708;BME280;17458;48.958;8.284;2023-09-18T05:48:53;99604.19;;;22.76;78.05
30708;BME280;17458;48.958;8.284;2023-09-18T05:51:40;99604.03;;;22.88;77.75
30708;BME280;17458;48.958;8.284;2023-09-18T05:54:24;99618.53;;;22.87;77.18
30708;BME280;17458;48.958;8.284;2023-09-18T05:57:08;99619.50;;;22.77;77.45
30708;BME280;17458;48.958;8.284;2023-09-18T05:59:53;99624.00;;;22.81;77.30
30708;BME280;17458;48.958;8.284;2023-09-18T06:02:37;99628.53;;;22.79;77.31
30708;BME280;17458;48.958;8.284;2023-09-18T06:05:22;99641.94;;;22.90;77.13
30708;BME280;17458;48.958;8.284;2023-09-18T06:08:06;99652.72;;;22.94;77.36
30708;BME280;17458;48.958;8.284;2023-09-18T06:10:50;99659.03;;;22.96;77.42
30708;BME280;17458;48.958;8.284;2023-09-18T06:13:34;99648.22;;;22.92;77.33
30708;BME280;17458;48.958;8.284;2023-09-18T06:16:18;99654.91;;;22.54;78.69
30708;BME280;17458;48.958;8.284;2023-09-18T06:19:02;99647.78;;;22.46;79.09
30708;BME280;17458;48.958;8.284;2023-09-18T06:21:46;99644.91;;;22.61;78.90
30708;BME280;17458;48.958;8.284;2023-09-18T06:24:30;99655.41;;;22.96;77.20
30708;BME280;17458;48.958;8.284;2023-09-18T06:27:14;99663.53;;;22.96;76.81
30708;BME280;17458;48.958;8.284;2023-09-18T06:29:58;99668.03;;;22.98;76.91
30708;BME280;17458;48.958;8.284;2023-09-18T06:32:41;99668.91;;;23.01;76.91
30708;BME280;17458;48.958;8.284;2023-09-18T06:35:25;99671.31;;;23.25;76.28
30708;BME280;17458;48.958;8.284;2023-09-18T06:38:09;99674.06;;;23.22;76.06
30708;BME280;17458;48.958;8.284;2023-09-18T06:40:56;99697.72;;;23.08;76.60
30708;BME280;17458;48.958;8.284;2023-09-18T06:43:40;99698.56;;;23.13;77.10
30708;BME280;17458;48.958;8.284;2023-09-18T06:46:24;99707.66;;;23.07;76.99
30708;BME280;17458;48.958;8.284;2023-09-18T06:49:08;99720.59;;;22.76;78.53
30708;BME280;17458;48.958;8.284;2023-09-18T06:51:51;99722.25;;;22.89;78.39
30708;BME280;17458;48.958;8.284;2023-09-18T06:54:36;99723.31;;;22.73;78.65
30708;BME280;17458;48.958;8.284;2023-09-18T06:57:20;99717.09;;;22.60;79.95
30708;BME280;17458;48.958;8.284;2023-09-18T07:00:05;99727.06;;;22.55;80.18
30708;BME280;17458;48.958;8.284;2023-09-18T07:02:49;99728.97;;;22.44;80.23
30708;BME280;17458;48.958;8.284;2023-09-18T07:05:33;99727.22;;;22.34;80.96
30708;BME280;17458;48.958;8.284;2023-09-18T07:08:17;99734.06;;;22.82;77.96
30708;BME280;17458;48.958;8.284;2023-09-18T07:11:06;99719.47;;;23.02;77.19
30708;BME280;17458;48.958;8.284;2023-09-18T07:13:51;99724.13;;;22.86;77.27
30708;BME280;17458;48.958;8.284;2023-09-18T07:16:34;99725.06;;;22.80;75.63
30708;BME280;17458;48.958;8.284;2023-09-18T07:19:18;99729.25;;;23.13;74.67
30708;BME280;17458;48.958;8.284;2023-09-18T07:22:02;99720.53;;;22.85;75.67
30708;BME280;17458;48.958;8.284;2023-09-18T07:24:46;99730.31;;;22.97;74.72
30708;BME280;17458;48.958;8.284;2023-09-18T07:27:30;99732.75;;;23.23;74.01
30708;BME280;17458;48.958;8.284;2023-09-18T07:30:15;99727.59;;;22.98;74.16
30708;BME280;17458;48.958;8.284;2023-09-18T07:33:00;99741.31;;;22.79;74.82
30708;BME280;17458;48.958;8.284;2023-09-18T07:35:47;99745.78;;;22.84;73.78
30708;BME280;17458;48.958;8.284;2023-09-18T07:38:32;99742.44;;;22.49;74.81
30708;BME280;17458;48.958;8.284;2023-09-18T07:41:15;99738.66;;;22.73;72.52
30708;BME280;17458;48.958;8.284;2023-09-18T07:43:59;99730.50;;;22.74;71.99
30708;BME280;17458;48.958;8.284;2023-09-18T07:46:43;99751.84;;;23.11;70.98
30708;BME280;17458;48.958;8.284;2023-09-18T07:49:27;99747.72;;;22.69;71.09
30708;BME280;17458;48.958;8.284;2023-09-18T07:52:11;99745.13;;;22.50;72.47
30708;BME280;17458;48.958;8.284;2023-09-18T07:54:55;99753.06;;;22.76;71.11
30708;BME280;17458;48.958;8.284;2023-09-18T07:57:39;99755.59;;;22.97;70.29
30708;BME280;17458;48.958;8.284;2023-09-18T08:00:24;99750.34;;;22.78;70.84
30708;BME280;17458;48.958;8.284;2023-09-18T08:03:09;99745.91;;;22.68;71.40
30708;BME280;17458;48.958;8.284;2023-09-18T08:05:53;99732.41;;;22.61;71.02
30708;BME280;17458;48.958;8.284;2023-09-18T08:08:38;99741.31;;;22.80;70.68
30708;BME280;17458;48.958;8.284;2023-09-18T08:11:22;99718.78;;;22.77;71.51
30708;BME280;17458;48.958;8.284;2023-09-18T08:14:07;99707.88;;;22.86;70.45
30708;BME280;17458;48.958;8.284;2023-09-18T08:16:56;99698.00;;;22.79;70.57
30708;BME280;17458;48.958;8.284;2023-09-18T08:19:41;99705.28;;;22.72;70.21
30708;BME280;17458;48.958;8.284;2023-09-18T08:22:26;99726.78;;;22.89;69.92
30708;BME280;17458;48.958;8.284;2023-09-18T08:25:11;99691.78;;;22.68;71.29
30708;BME280;17458;48.958;8.284;2023-09-18T08:27:55;99670.91;;;22.83;69.55
30708;BME280;17458;48.958;8.284;2023-09-18T08:30:39;99686.28;;;22.78;70.46
30708;BME280;17458;48.958;8.284;2023-09-18T08:33:23;99705.19;;;22.84;70.19
30708;BME280;17458;48.958;8.284;2023-09-18T08:36:08;99713.41;;;22.72;70.41
30708;BME280;17458;48.958;8.284;2023-09-18T08:38:52;99703.25;;;22.95;69.62
30708;BME280;17458;48.958;8.284;2023-09-18T08:41:40;99691.56;;;22.89;70.06
30708;BME280;17458;48.958;8.284;2023-09-18T08:44:26;99688.47;;;23.27;68.77
30708;BME280;17458;48.958;8.284;2023-09-18T08:47:12;99693.28;;;23.01;69.66
30708;BME280;17458;48.958;8.284;2023-09-18T08:49:58;99711.34;;;23.02;69.76
30708;BME280;17458;48.958;8.284;2023-09-18T08:52:43;99707.88;;;22.87;69.24
30708;BME280;17458;48.958;8.284;2023-09-18T08:55:28;99717.66;;;23.01;69.13
30708;BME280;17458;48.958;8.284;2023-09-18T08:58:12;99729.94;;;23.32;68.81
30708;BME280;17458;48.958;8.284;2023-09-18T09:00:57;99740.09;;;23.13;68.52
30708;BME280;17458;48.958;8.284;2023-09-18T09:03:42;99761.97;;;22.92;68.63
30708;BME280;17458;48.958;8.284;2023-09-18T09:06:29;99752.41;;;23.42;67.13
30708;BME280;17458;48.958;8.284;2023-09-18T09:09:13;99756.22;;;23.22;67.71
30708;BME280;17458;48.958;8.284;2023-09-18T09:11:58;99760.91;;;23.07;68.04
30708;BME280;17458;48.958;8.284;2023-09-18T09:15:01;99764.72;;;22.87;68.00
30708;BME280;17458;48.958;8.284;2023-09-18T09:17:45;99769.13;;;22.97;68.11
30708;BME280;17458;48.958;8.284;2023-09-18T09:20:29;99765.25;;;23.24;67.13
30708;BME280;17458;48.958;8.284;2023-09-18T09:23:13;99768.13;;;23.08;67.44
30708;BME280;17458;48.958;8.284;2023-09-18T09:26:16;99760.69;;;23.28;67.57
30708;BME280;17458;48.958;8.284;2023-09-18T09:29:15;99760.13;;;22.95;68.16
30708;BME280;17458;48.958;8.284;2023-09-18T09:32:16;99736.38;;;23.20;67.32
30708;BME280;17458;48.958;8.284;2023-09-18T09:35:00;99734.25;;;23.53;65.88
30708;BME280;17458;48.958;8.284;2023-09-18T09:37:47;99745.34;;;23.28;66.37
30708;BME280;17458;48.958;8.284;2023-09-18T09:40:31;99744.19;;;23.49;66.59
30708;BME280;17458;48.958;8.284;2023-09-18T09:43:22;99743.28;;;23.49;66.04
30708;BME280;17458;48.958;8.284;2023-09-18T09:46:06;99745.09;;;23.48;65.54
30708;BME280;17458;48.958;8.284;2023-09-18T09:49:02;99738.16;;;23.26;66.52
30708;BME280;17458;48.958;8.284;2023-09-18T09:51:47;99734.34;;;23.42;65.58
30708;BME280;17458;48.958;8.284;2023-09-18T09:54:35;99741.66;;;23.32;66.03
30708;BME280;17458;48.958;8.284;2023-09-18T09:57:21;99744.00;;;23.66;65.76
30708;BME280;17458;48.958;8.284;2023-09-18T10:00:05;99741.81;;;23.19;66.45
30708;BME280;17458;48.958;8.284;2023-09-18T10:03:06;99752.16;;;23.64;64.87
30708;BME280;17458;48.958;8.284;2023-09-18T10:05:52;99745.81;;;23.67;64.39
30708;BME280;17458;48.958;8.284;2023-09-18T10:08:38;99770.41;;;23.46;64.98
30708;BME280;17458;48.958;8.284;2023-09-18T10:11:23;99768.25;;;23.80;64.31
30708;BME280;17458;48.958;8.284;2023-09-18T10:14:16;99755.78;;;23.65;64.52
30708;BME280;17458;48.958;8.284;2023-09-18T10:17:13;99748.72;;;23.52;64.67
30708;BME280;17458;48.958;8.284;2023-09-18T10:20:08;99758.25;;;23.85;63.33
30708;BME280;17458;48.958;8.284;2023-09-18T10:22:56;99758.63;;;24.20;62.88
30708;BME280;17458;48.958;8.284;2023-09-18T10:25:45;99749.03;;;23.96;61.20
30708;BME280;17458;48.958;8.284;2023-09-18T10:28:32;99757.53;;;23.71;63.60
30708;BME280;17458;48.958;8.284;2023-09-18T10:31:16;99756.50;;;23.78;62.51
30708;BME280;17458;48.958;8.284;2023-09-18T10:34:01;99760.41;;;24.26;61.67
30708;BME280;17458;48.958;8.284;2023-09-18T10:36:48;99745.22;;;24.10;62.06
30708;BME280;17458;48.958;8.284;2023-09-18T10:39:37;99759.81;;;24.01;61.07
30708;BME280;17458;48.958;8.284;2023-09-18T10:42:23;99748.00;;;24.03;61.73
30708;BME280;17458;48.958;8.284;2023-09-18T10:45:09;99748.72;;;24.16;59.97
30708;BME280;17458;48.958;8.284;2023-09-18T10:47:55;99737.81;;;24.21;60.11
30708;BME280;17458;48.958;8.284;2023-09-18T10:50:39;99749.25;;;23.80;60.77
30708;BME280;17458;48.958;8.284;2023-09-18T10:53:26;99753.47;;;24.62;58.69
30708;BME280;17458;48.958;8.284;2023-09-18T10:56:10;99759.59;;;24.76;58.90
30708;BME280;17458;48.958;8.284;2023-09-18T10:58:59;99760.75;;;24.60;58.98
30708;BME280;17458;48.958;8.284;2023-09-18T11:01:44;99766.13;;;24.63;59.58
30708;BME280;17458;48.958;8.284;2023-09-18T11:04:31;99761.19;;;24.88;57.95
30708;BME280;17458;48.958;8.284;2023-09-18T11:07:22;99763.00;;;24.87;58.06
30708;BME280;17458;48.958;8.284;2023-09-18T11:10:25;99753.41;;;25.19;57.81
30708;BME280;17458;48.958;8.284;2023-09-18T11:13:10;99752.78;;;25.04;57.78
30708;BME280;17458;48.958;8.284;2023-09-18T11:15:59;99751.38;;;24.79;58.23
30708;BME280;17458;48.958;8.284;2023-09-18T11:18:47;99763.41;;;24.64;58.21
30708;BME280;17458;48.958;8.284;2023-09-18T11:21:32;99751.03;;;25.00;57.06
30708;BME280;17458;48.958;8.284;2023-09-18T11:24:20;99750.13;;;25.00;57.45
30708;BME280;17458;48.958;8.284;2023-09-18T11:27:06;99751.03;;;25.00;57.16
30708;BME280;17458;48.958;8.284;2023-09-18T11:29:51;99764.69;;;24.97;57.52
30708;BME280;17458;48.958;8.284;2023-09-18T11:32:39;99761.59;;;25.17;56.95
30708;BME280;17458;48.958;8.284;2023-09-18T11:35:25;99764.34;;;25.16;56.50
30708;BME280;17458;48.958;8.284;2023-09-18T11:38:10;99762.50;;;25.18;55.29
30708;BME280;17458;48.958;8.284;2023-09-18T11:40:55;99760.38;;;25.33;56.84
30708;BME280;17458;48.958;8.284;2023-09-18T11:43:39;99759.09;;;25.06;55.83
30708;BME280;17458;48.958;8.284;2023-09-18T11:46:23;99765.91;;;25.29;55.99
30708;BME280;17458;48.958;8.284;2023-09-18T11:49:10;99757.00;;;25.21;56.64
30708;BME280;17458;48.958;8.284;2023-09-18T11:51:54;99761.50;;;25.22;55.64
30708;BME280;17458;48.958;8.284;2023-09-18T11:54:41;99752.97;;;25.41;55.87
30708;BME280;17458;48.958;8.284;2023-09-18T11:57:27;99755.34;;;25.58;55.30
30708;BME280;17458;48.958;8.284;2023-09-18T12:00:19;99759.59;;;25.73;54.33
30708;BME280;17458;48.958;8.284;2023-09-18T12:03:19;99755.34;;;26.01;52.95
30708;BME280;17458;48.958;8.284;2023-09-18T12:06:10;99751.13;;;25.42;54.64
30708;BME280;17458;48.958;8.284;2023-09-18T12:08:56;99758.59;;;25.78;54.17
30708;BME280;17458;48.958;8.284;2023-09-18T12:11:41;99759.59;;;25.73;53.15
30708;BME280;17458;48.958;8.284;2023-09-18T12:14:26;99750.09;;;25.49;53.84
30708;BME280;17458;48.958;8.284;2023-09-18T12:17:14;99755.84;;;25.80;53.75
30708;BME280;17458;48.958;8.284;2023-09-18T12:19:58;99763.75;;;25.91;53.88
30708;BME280;17458;48.958;8.284;2023-09-18T12:22:47;99750.72;;;26.06;53.48
30708;BME280;17458;48.958;8.284;2023-09-18T12:25:31;99755.03;;;25.29;54.32
30708;BME280;17458;48.958;8.284;2023-09-18T12:28:16;99757.47;;;25.87;54.01
30708;BME280;17458;48.958;8.284;2023-09-18T12:31:01;99760.34;;;26.23;52.99
30708;BME280;17458;48.958;8.284;2023-09-18T12:33:49;99764.75;;;26.27;53.03
30708;BME280;17458;48.958;8.284;2023-09-18T12:36:34;99766.59;;;25.85;53.25
30708;BME280;17458;48.958;8.284;2023-09-18T12:39:18;99769.78;;;26.46;52.07
30708;BME280;17458;48.958;8.284;2023-09-18T12:42:05;99757.94;;;26.47;51.58
30708;BME280;17458;48.958;8.284;2023-09-18T12:44:50;99748.56;;;25.82;52.47
30708;BME280;17458;48.958;8.284;2023-09-18T12:47:35;99748.22;;;26.37;51.42
30708;BME280;17458;48.958;8.284;2023-09-18T12:50:24;99752.00;;;26.67;51.91
30708;BME280;17458;48.958;8.284;2023-09-18T12:53:10;99744.16;;;26.91;51.60
30708;BME280;17458;48.958;8.284;2023-09-18T12:55:54;99754.00;;;27.30;50.02
30708;BME280;17458;48.958;8.284;2023-09-18T12:58:48;99743.50;;;27.49;49.61
30708;BME280;17458;48.958;8.284;2023-09-18T13:01:32;99744.41;;;27.80;49.70
30708;BME280;17458;48.958;8.284;2023-09-18T13:04:16;99749.72;;;27.52;51.17
30708;BME280;17458;48.958;8.284;2023-09-18T13:07:10;99747.50;;;27.36;49.59
30708;BME280;17458;48.958;8.284;2023-09-18T13:10:00;99736.97;;;26.87;50.66
30708;BME280;17458;48.958;8.284;2023-09-18T13:12:49;99736.31;;;27.12;49.45
30708;BME280;17458;48.958;8.284;2023-09-18T13:15:37;99730.97;;;26.74;50.69
30708;BME280;17458;48.958;8.284;2023-09-18T13:18:22;99724.28;;;27.52;49.80
30708;BME280;17458;48.958;8.284;2023-09-18T13:21:11;99732.03;;;27.36;49.84
30708;BME280;17458;48.958;8.284;2023-09-18T13:23:55;99720.88;;;26.77;50.41
30708;BME280;17458;48.958;8.284;2023-09-18T13:26:39;99719.66;;;27.56;49.90
30708;BME280;17458;48.958;8.284;2023-09-18T13:29:24;99726.16;;;28.12;48.68
30708;BME280;17458;48.958;8.284;2023-09-18T13:32:08;99730.91;;;28.63;48.95
30708;BME280;17458;48.958;8.284;2023-09-18T13:34:52;99725.41;;;27.77;50.07
30708;BME280;17458;48.958;8.284;2023-09-18T13:37:38;99717.09;;;28.10;48.80
30708;BME280;17458;48.958;8.284;2023-09-18T13:40:22;99722.78;;;28.33;49.01
30708;BME280;17458;48.958;8.284;2023-09-18T13:43:07;99717.84;;;27.87;48.64
30708;BME280;17458;48.958;8.284;2023-09-18T13:45:52;99721.16;;;27.97;49.20
30708;BME280;17458;48.958;8.284;2023-09-18T13:48:36;99724.22;;;27.55;49.18
30708;BME280;17458;48.958;8.284;2023-09-18T13:51:22;99724.72;;;28.30;48.65
30708;BME280;17458;48.958;8.284;2023-09-18T13:54:06;99716.47;;;28.02;48.72
30708;BME280;17458;48.958;8.284;2023-09-18T13:56:51;99709.72;;;27.84;48.99
30708;BME280;17458;48.958;8.284;2023-09-18T13:59:35;99713.13;;;28.21;48.20
30708;BME280;17458;48.958;8.284;2023-09-18T14:02:20;99700.28;;;28.25;48.06
30708;BME280;17458;48.958;8.284;2023-09-18T14:05:05;99700.13;;;28.00;48.58
30708;BME280;17458;48.958;8.284;2023-09-18T14:07:49;99702.09;;;27.95;49.16
30708;BME280;17458;48.958;8.284;2023-09-18T14:10:34;99689.19;;;27.72;47.79
30708;BME280;17458;48.958;8.284;2023-09-18T14:13:18;99687.09;;;28.38;48.10
30708;BME280;17458;48.958;8.284;2023-09-18T14:16:02;99688.16;;;28.62;47.17
30708;BME280;17458;48.958;8.284;2023-09-18T14:18:47;99685.69;;;28.26;49.15
30708;BME280;17458;48.958;8.284;2023-09-18T14:21:32;99686.41;;;27.74;48.09
30708;BME280;17458;48.958;8.284;2023-09-18T14:24:16;99677.94;;;27.52;49.15
30708;BME280;17458;48.958;8.284;2023-09-18T14:27:06;99674.25;;;27.53;49.69
30708;BME280;17458;48.958;8.284;2023-09-18T14:29:51;99661.00;;;27.72;48.29
30708;BME280;17458;48.958;8.284;2023-09-18T14:32:35;99662.81;;;27.40;49.68
30708;BME280;17458;48.958;8.284;2023-09-18T14:35:20;99662.19;;;27.93;48.52
30708;BME280;17458;48.958;8.284;2023-09-18T14:38:04;99659.69;;;27.54;48.59
30708;BME280;17458;48.958;8.284;2023-09-18T14:40:51;99660.47;;;27.59;49.49